createdAt,value
2018-05-12T00:00:44.020Z,48.90
2018-05-12T00:02:47.751Z,49.10
2018-05-12T00:04:50.674Z,49.00
2018-05-12T00:06:53.621Z,49.10
2018-05-12T00:08:56.579Z,49.00
2018-05-12T00:10:59.507Z,49.10
2018-05-12T00:13:02.468Z,49.10
2018-05-12T00:15:05.441Z,49.10
2018-05-12T00:17:08.355Z,49.20
2018-05-12T00:19:12.815Z,49.20
2018-05-12T00:21:15.759Z,49.10
2018-05-12T00:23:18.709Z,49.20
2018-05-12T00:25:21.633Z,49.30
2018-05-12T00:27:25.459Z,49.40
2018-05-12T00:29:29.261Z,49.50
2018-05-12T00:31:32.931Z,49.50
2018-05-12T00:33:35.865Z,49.50
2018-05-12T00:35:38.795Z,49.50
2018-05-12T00:37:41.809Z,49.60
2018-05-12T00:39:45.622Z,49.60
2018-05-12T00:41:49.310Z,49.50
2018-05-12T00:43:53.135Z,49.60
2018-05-12T00:45:56.068Z,49.50
2018-05-12T00:47:59.019Z,49.60
2018-05-12T00:50:01.975Z,49.60
2018-05-12T00:52:04.902Z,49.60
2018-05-12T00:54:07.862Z,49.70
2018-05-12T00:56:10.787Z,49.80
2018-05-12T00:58:14.609Z,50.00
2018-05-12T01:00:18.304Z,50.10
2018-05-12T01:02:21.982Z,50.20
2018-05-12T01:04:24.942Z,50.10
2018-05-12T01:06:27.855Z,50.20
2018-05-12T01:08:30.834Z,50.30
2018-05-12T01:10:34.532Z,50.60
2018-05-12T01:12:37.456Z,50.40
2018-05-12T01:14:40.415Z,50.30
2018-05-12T01:16:44.117Z,50.50
2018-05-12T01:18:47.830Z,50.50
2018-05-12T01:20:51.618Z,50.50
2018-05-12T01:22:55.303Z,50.60
2018-05-12T01:24:59.127Z,51.20
2018-05-12T01:27:02.925Z,50.60
2018-05-12T01:29:05.954Z,50.60
2018-05-12T01:31:08.883Z,50.70
2018-05-12T01:33:12.582Z,50.90
2018-05-12T01:35:16.392Z,50.90
2018-05-12T01:37:20.079Z,50.90
2018-05-12T01:39:23.819Z,51.10
2018-05-12T01:41:26.743Z,50.90
2018-05-12T01:43:31.193Z,51.10
2018-05-12T01:45:34.175Z,51.10
2018-05-12T01:47:37.107Z,51.10
2018-05-12T01:49:40.029Z,51.10
2018-05-12T01:51:43.753Z,51.30
2018-05-12T01:53:46.670Z,51.20
2018-05-12T01:55:49.720Z,51.30
2018-05-12T01:57:52.681Z,51.30
2018-05-12T01:59:56.362Z,51.30
2018-05-12T02:02:00.075Z,51.40
2018-05-12T02:04:03.760Z,51.40
2018-05-12T02:06:07.482Z,51.10
2018-05-12T02:08:11.185Z,51.50
2018-05-12T02:10:14.885Z,51.50
2018-05-12T02:12:18.739Z,51.50
2018-05-12T02:14:21.772Z,51.50
2018-05-12T02:16:25.480Z,51.60
2018-05-12T02:18:28.394Z,51.40
2018-05-12T02:20:31.325Z,51.60
2018-05-12T02:22:35.781Z,51.60
2018-05-12T02:24:38.693Z,51.60
2018-05-12T02:26:41.643Z,51.70
2018-05-12T02:28:44.572Z,51.70
2018-05-12T02:30:47.586Z,51.70
2018-05-12T02:32:51.299Z,51.90
2018-05-12T02:34:54.978Z,51.90
2018-05-12T02:36:58.697Z,52.00
2018-05-12T02:39:01.621Z,51.90
2018-05-12T02:41:04.648Z,51.90
2018-05-12T02:43:08.450Z,52.10
2018-05-12T02:45:12.129Z,52.10
2018-05-12T02:47:15.066Z,52.10
2018-05-12T02:49:17.978Z,52.10
2018-05-12T02:51:20.928Z,52.00
2018-05-12T02:53:23.858Z,52.00
2018-05-12T02:55:26.775Z,52.00
2018-05-12T02:57:30.577Z,52.10
2018-05-12T02:59:33.497Z,52.10
2018-05-12T03:01:36.594Z,52.10
2018-05-12T03:03:39.614Z,52.10
2018-05-12T03:05:42.557Z,52.20
2018-05-12T03:07:45.503Z,52.20
2018-05-12T03:09:48.414Z,52.30
2018-05-12T03:11:51.325Z,52.30
2018-05-12T03:13:55.053Z,52.40
2018-05-12T03:15:57.985Z,52.30
2018-05-12T03:18:00.909Z,52.40
2018-05-12T03:20:04.633Z,52.40
2018-05-12T03:22:07.562Z,52.50
2018-05-12T03:24:10.514Z,52.40
2018-05-12T03:26:13.459Z,52.50
2018-05-12T03:28:17.166Z,52.60
2018-05-12T03:30:20.135Z,52.60
2018-05-12T03:32:23.052Z,52.70
2018-05-12T03:34:26.002Z,52.80
2018-05-12T03:36:28.943Z,52.80
2018-05-12T03:38:31.877Z,52.90
2018-05-12T03:40:34.829Z,53.00
2018-05-12T03:42:37.927Z,53.00
2018-05-12T03:44:41.728Z,53.10
2018-05-12T03:46:45.407Z,53.20
2018-05-12T03:48:49.849Z,53.20
2018-05-12T03:50:53.569Z,53.30
2018-05-12T03:52:56.492Z,53.30
2018-05-12T03:54:59.453Z,53.30
2018-05-12T03:57:02.496Z,53.30
2018-05-12T03:59:06.228Z,53.30
2018-05-12T04:01:09.149Z,53.30
2018-05-12T04:03:12.093Z,53.30
2018-05-12T04:05:27.005Z,53.30
2018-05-12T04:07:42.804Z,53.40
2018-05-12T04:10:03.163Z,53.30
2018-05-12T04:12:17.836Z,53.40
2018-05-12T04:14:21.524Z,53.50
2018-05-12T04:16:24.483Z,53.50
2018-05-12T04:18:28.165Z,53.70
2018-05-12T04:20:31.114Z,53.70
2018-05-12T04:22:34.929Z,53.70
2018-05-12T04:24:37.854Z,53.70
2018-05-12T04:26:41.567Z,53.80
2018-05-12T04:28:44.517Z,53.80
2018-05-12T04:30:47.463Z,53.80
2018-05-12T04:32:50.484Z,53.80
2018-05-12T04:34:53.428Z,53.90
2018-05-12T04:36:57.130Z,53.90
2018-05-12T04:39:00.842Z,53.90
2018-05-12T04:41:03.765Z,53.90
2018-05-12T04:43:06.798Z,53.90
2018-05-12T04:45:09.748Z,54.00
2018-05-12T04:47:12.764Z,54.10
2018-05-12T04:49:16.483Z,54.20
2018-05-12T04:51:19.419Z,54.10
2018-05-12T04:53:23.894Z,54.30
2018-05-12T04:55:26.809Z,54.30
2018-05-12T04:57:29.741Z,54.30
2018-05-12T04:59:32.708Z,54.40
2018-05-12T05:01:36.510Z,54.60
2018-05-12T05:03:40.232Z,54.60
2018-05-12T05:05:43.170Z,54.50
2018-05-12T05:07:46.085Z,54.60
2018-05-12T05:09:49.030Z,54.70
2018-05-12T05:11:52.734Z,54.70
2018-05-12T05:13:55.687Z,54.70
2018-05-12T05:15:58.605Z,54.70
2018-05-12T05:18:02.300Z,55.00
2018-05-12T05:20:05.245Z,54.90
2018-05-12T05:22:08.170Z,55.00
2018-05-12T05:24:11.110Z,55.00
2018-05-12T05:26:14.150Z,55.00
2018-05-12T05:28:17.126Z,54.90
2018-05-12T05:30:20.835Z,55.00
2018-05-12T05:32:24.517Z,55.00
2018-05-12T05:34:28.967Z,54.90
2018-05-12T05:36:31.896Z,54.90
2018-05-12T05:38:35.026Z,55.00
2018-05-12T05:40:38.725Z,55.10
2018-05-12T05:42:41.657Z,55.00
2018-05-12T05:44:44.626Z,55.10
2018-05-12T05:46:47.668Z,55.20
2018-05-12T05:48:50.638Z,55.20
2018-05-12T05:50:53.589Z,55.20
2018-05-12T05:52:56.526Z,55.40
2018-05-12T05:54:59.477Z,55.30
2018-05-12T05:57:02.405Z,55.40
2018-05-12T05:59:05.355Z,55.40
2018-05-12T06:01:09.046Z,55.20
2018-05-12T06:03:12.759Z,55.10
2018-05-12T06:05:16.469Z,55.10
2018-05-12T06:07:19.401Z,55.00
2018-05-12T06:09:22.341Z,54.90
2018-05-12T06:11:25.266Z,55.00
2018-05-12T06:13:28.282Z,54.80
2018-05-12T06:15:32.001Z,54.80
2018-05-12T06:17:34.933Z,54.70
2018-05-12T06:19:39.490Z,54.90
2018-05-12T06:21:43.173Z,54.70
2018-05-12T06:23:46.873Z,54.80
2018-05-12T06:25:50.590Z,54.80
2018-05-12T06:27:54.399Z,54.60
2018-05-12T06:29:57.367Z,54.60
2018-05-12T06:32:01.047Z,54.50
2018-05-12T06:34:04.006Z,54.40
2018-05-12T06:36:06.932Z,54.40
2018-05-12T06:38:10.640Z,54.50
2018-05-12T06:40:14.345Z,54.50
2018-05-12T06:42:18.025Z,54.50
2018-05-12T06:44:21.850Z,55.00
2018-05-12T06:46:25.530Z,54.70
2018-05-12T06:48:29.245Z,54.70
2018-05-12T06:50:32.214Z,54.70
2018-05-12T06:52:35.902Z,54.70
2018-05-12T06:54:39.643Z,54.70
2018-05-12T06:56:42.565Z,54.60
2018-05-12T06:58:45.691Z,54.70
2018-05-12T07:00:49.408Z,54.70
2018-05-12T07:02:52.348Z,54.70
2018-05-12T07:04:56.175Z,54.70
2018-05-12T07:06:59.853Z,54.60
2018-05-12T07:09:03.593Z,54.60
2018-05-12T07:11:06.545Z,54.60
2018-05-12T07:13:10.244Z,54.70
2018-05-12T07:15:13.973Z,54.90
2018-05-12T07:17:16.900Z,54.70
2018-05-12T07:19:19.872Z,55.00
2018-05-12T07:21:22.794Z,55.10
2018-05-12T07:23:26.490Z,55.30
2018-05-12T07:25:29.464Z,55.20
2018-05-12T07:27:33.165Z,55.20
2018-05-12T07:29:36.944Z,55.20
2018-05-12T07:31:39.856Z,55.20
2018-05-12T07:33:43.685Z,55.50
2018-05-12T07:35:46.710Z,55.40
2018-05-12T07:37:49.741Z,55.40
2018-05-12T07:39:53.469Z,55.50
2018-05-12T07:41:56.496Z,55.40
2018-05-12T07:43:59.456Z,56.10
2018-05-12T07:46:02.397Z,55.40
2018-05-12T07:48:05.341Z,55.40
2018-05-12T07:50:08.316Z,55.50
2018-05-12T07:52:11.248Z,55.60
2018-05-12T07:54:14.226Z,55.50
2018-05-12T07:56:17.934Z,55.40
2018-05-12T07:58:21.634Z,55.30
2018-05-12T08:00:24.704Z,55.30
2018-05-12T08:02:28.389Z,55.30
2018-05-12T08:04:32.137Z,55.30
2018-05-12T08:06:35.061Z,55.20
2018-05-12T08:08:38.026Z,55.10
2018-05-12T08:10:40.970Z,55.00
2018-05-12T08:12:43.929Z,54.90
2018-05-12T08:14:47.645Z,54.80
2018-05-12T08:16:50.569Z,54.70
2018-05-12T08:18:53.523Z,54.70
2018-05-12T08:20:56.582Z,54.70
2018-05-12T08:23:00.278Z,54.70
2018-05-12T08:25:04.007Z,54.50
2018-05-12T08:27:07.781Z,54.40
2018-05-12T08:29:10.729Z,54.30
2018-05-12T08:31:13.764Z,54.20
2018-05-12T08:33:16.693Z,54.10
2018-05-12T08:35:19.657Z,53.90
2018-05-12T08:37:22.611Z,53.80
2018-05-12T08:39:25.560Z,53.50
2018-05-12T08:41:28.489Z,53.30
2018-05-12T08:43:31.446Z,53.20
2018-05-12T08:45:35.190Z,53.20
2018-05-12T08:47:38.231Z,53.20
2018-05-12T08:49:41.213Z,53.20
2018-05-12T08:51:44.893Z,53.10
2018-05-12T08:53:48.593Z,53.00
2018-05-12T08:55:52.305Z,53.50
2018-05-12T08:58:01.804Z,52.80
2018-05-12T09:00:05.377Z,52.70
2018-05-12T09:02:08.697Z,52.50
2018-05-12T09:04:11.625Z,52.20
2018-05-12T09:06:14.617Z,51.90
2018-05-12T09:08:17.552Z,51.90
2018-05-12T09:10:21.317Z,52.50
2018-05-12T09:12:24.235Z,51.80
2018-05-12T09:14:27.163Z,51.80
2018-05-12T09:16:30.113Z,51.80
2018-05-12T09:18:33.828Z,51.50
2018-05-12T09:20:37.543Z,51.40
2018-05-12T09:22:40.456Z,51.40
2018-05-12T09:24:43.397Z,51.50
2018-05-12T09:26:47.121Z,51.70
2018-05-12T09:28:50.054Z,51.70
2018-05-12T09:30:53.015Z,51.70
2018-05-12T09:32:56.040Z,51.60
2018-05-12T09:34:58.994Z,51.60
2018-05-12T09:37:01.937Z,51.50
2018-05-12T09:39:04.888Z,51.40
2018-05-12T09:41:07.837Z,51.10
2018-05-12T09:43:10.775Z,51.00
2018-05-12T09:45:13.797Z,51.00
2018-05-12T09:47:16.718Z,50.90
2018-05-12T09:49:19.645Z,50.90
2018-05-12T09:51:22.636Z,50.90
2018-05-12T09:53:25.665Z,51.00
2018-05-12T09:55:29.413Z,50.20
2018-05-12T09:57:32.365Z,50.10
2018-05-12T09:59:35.309Z,49.90
2018-05-12T10:01:39.046Z,49.50
2018-05-12T10:03:41.973Z,49.40
2018-05-12T10:05:44.918Z,49.40
2018-05-12T10:07:47.860Z,49.50
2018-05-12T10:09:50.785Z,49.40
2018-05-12T10:11:53.743Z,49.40
2018-05-12T10:13:56.665Z,49.30
2018-05-12T10:15:59.706Z,49.10
2018-05-12T10:18:03.398Z,48.90
2018-05-12T10:20:07.121Z,48.40
2018-05-12T10:22:10.060Z,48.40
2018-05-12T10:24:13.760Z,48.20
2018-05-12T10:26:16.745Z,48.20
2018-05-12T10:28:20.469Z,48.90
2018-05-12T10:30:23.505Z,48.20
2018-05-12T10:32:26.450Z,48.00
2018-05-12T10:34:30.139Z,47.90
2018-05-12T10:36:33.090Z,47.90
2018-05-12T10:38:36.042Z,47.90
2018-05-12T10:40:39.118Z,47.80
2018-05-12T10:42:42.036Z,47.30
2018-05-12T10:44:44.998Z,47.00
2018-05-12T10:46:47.911Z,47.10
2018-05-12T10:48:51.613Z,47.20
2018-05-12T10:50:56.081Z,47.10
2018-05-12T10:52:59.009Z,47.00
2018-05-12T10:55:01.925Z,47.20
2018-05-12T10:57:05.001Z,47.20
2018-05-12T10:59:08.701Z,47.10
2018-05-12T11:01:12.413Z,47.00
2018-05-12T11:03:15.385Z,47.00
2018-05-12T11:05:19.097Z,46.80
2018-05-12T11:07:22.046Z,46.70
2018-05-12T11:09:25.730Z,46.80
2018-05-12T11:11:28.690Z,46.70
2018-05-12T11:13:31.735Z,46.70
2018-05-12T11:15:34.757Z,46.80
2018-05-12T11:17:37.700Z,46.90
2018-05-12T11:19:41.377Z,47.40
2018-05-12T11:21:45.152Z,47.40
2018-05-12T11:23:48.041Z,47.40
2018-05-12T11:25:51.019Z,47.40
2018-05-12T11:27:53.978Z,47.20
2018-05-12T11:29:56.894Z,47.20
2018-05-12T11:31:59.814Z,47.10
2018-05-12T11:34:02.766Z,46.90
2018-05-12T11:36:06.472Z,46.70
2018-05-12T11:38:10.292Z,46.50
2018-05-12T11:40:13.970Z,46.10
2018-05-12T11:42:17.671Z,46.80
2018-05-12T11:44:21.547Z,46.50
2018-05-12T11:46:24.423Z,46.40
2018-05-12T11:48:27.409Z,46.30
2018-05-12T11:50:30.322Z,46.30
2018-05-12T11:52:33.253Z,46.30
2018-05-12T11:54:36.250Z,46.00
2018-05-12T11:56:39.229Z,45.90
2018-05-12T11:58:42.272Z,45.90
2018-05-12T12:00:45.948Z,45.70
2018-05-12T12:02:49.776Z,45.70
2018-05-12T12:04:53.636Z,45.30
2018-05-12T12:06:56.559Z,45.30
2018-05-12T12:09:00.269Z,45.20
2018-05-12T12:11:04.021Z,44.90
2018-05-12T12:13:06.985Z,44.90
2018-05-12T12:15:10.051Z,44.70
2018-05-12T12:17:12.976Z,44.60
2018-05-12T12:19:16.455Z,44.40
2018-05-12T12:21:19.382Z,44.50
2018-05-12T12:23:23.057Z,44.90
2018-05-12T12:25:26.171Z,44.90
2018-05-12T12:27:30.078Z,45.50
2018-05-12T12:29:33.804Z,45.60
2018-05-12T12:31:36.757Z,45.50
2018-05-12T12:33:40.448Z,45.70
2018-05-12T12:35:44.159Z,45.70
2018-05-12T12:37:47.961Z,45.60
2018-05-12T12:39:51.656Z,45.40
2018-05-12T12:41:55.372Z,45.10
2018-05-12T12:43:59.054Z,44.90
2018-05-12T12:46:02.840Z,44.90
2018-05-12T12:48:05.757Z,44.80
2018-05-12T12:50:08.680Z,44.80
2018-05-12T12:52:11.741Z,44.70
2018-05-12T12:54:14.650Z,44.80
2018-05-12T12:56:17.643Z,45.10
2018-05-12T12:58:20.696Z,45.00
2018-05-12T13:00:23.539Z,44.80
2018-05-12T13:02:26.914Z,44.70
2018-05-12T13:04:30.838Z,44.60
2018-05-12T13:06:34.522Z,44.80
2018-05-12T13:08:38.204Z,44.90
2018-05-12T13:10:41.274Z,44.80
2018-05-12T13:12:44.213Z,44.90
2018-05-12T13:14:47.889Z,44.70
2018-05-12T13:16:51.615Z,44.70
2018-05-12T13:18:54.774Z,44.50
2018-05-12T13:20:57.757Z,44.50
2018-05-12T13:23:00.669Z,44.40
2018-05-12T13:25:03.591Z,44.50
2018-05-12T13:27:06.562Z,44.50
2018-05-12T13:29:10.320Z,44.20
2018-05-12T13:31:14.018Z,44.20
2018-05-12T13:33:17.755Z,44.00
2018-05-12T13:35:20.663Z,44.00
2018-05-12T13:37:23.587Z,44.10
2018-05-12T13:39:27.326Z,44.10
2018-05-12T13:41:30.246Z,44.10
2018-05-12T13:43:33.984Z,44.60
2018-05-12T13:45:36.918Z,44.50
2018-05-12T13:47:39.834Z,44.30
2018-05-12T13:49:43.565Z,43.80
2018-05-12T13:51:46.513Z,44.40
2018-05-12T13:53:50.209Z,43.50
2018-05-12T13:55:53.998Z,43.50
2018-05-12T13:57:56.905Z,43.40
2018-05-12T13:59:59.829Z,43.40
2018-05-12T14:02:02.785Z,43.10
2018-05-12T14:04:05.709Z,42.90
2018-05-12T14:06:08.748Z,42.90
2018-05-12T14:08:11.672Z,42.60
2018-05-12T14:10:14.609Z,42.30
2018-05-12T14:12:17.570Z,42.40
2018-05-12T14:14:21.275Z,42.50
2018-05-12T14:16:25.073Z,42.30
2018-05-12T14:18:28.809Z,42.20
2018-05-12T14:20:31.754Z,42.20
2018-05-12T14:22:35.435Z,42.20
2018-05-12T14:24:38.465Z,42.10
2018-05-12T14:26:41.373Z,42.30
2018-05-12T14:28:44.339Z,42.40
2018-05-12T14:30:47.253Z,42.60
2018-05-12T14:32:50.200Z,42.80
2018-05-12T14:34:53.151Z,42.50
2018-05-12T14:36:56.826Z,42.00
2018-05-12T14:39:00.537Z,41.70
2018-05-12T14:41:04.218Z,42.70
2018-05-12T14:43:07.230Z,42.00
2018-05-12T14:45:11.032Z,42.00
2018-05-12T14:47:15.472Z,42.00
2018-05-12T14:49:18.431Z,42.00
2018-05-12T14:51:22.103Z,41.90
2018-05-12T14:53:25.046Z,41.90
2018-05-12T14:55:28.301Z,41.90
2018-05-12T14:57:31.990Z,42.00
2018-05-12T14:59:34.892Z,42.00
2018-05-12T15:01:38.597Z,41.60
2018-05-12T15:03:41.510Z,41.60
2018-05-12T15:05:44.426Z,41.50
2018-05-12T15:07:47.353Z,41.60
2018-05-12T15:09:51.105Z,41.80
2018-05-12T15:11:54.055Z,41.80
2018-05-12T15:13:56.968Z,41.90
2018-05-12T15:16:00.680Z,42.50
2018-05-12T15:18:03.621Z,42.40
2018-05-12T15:20:06.540Z,42.50
2018-05-12T15:22:09.475Z,42.50
2018-05-12T15:24:12.410Z,42.40
2018-05-12T15:26:16.106Z,43.30
2018-05-12T15:28:19.782Z,43.30
2018-05-12T15:30:22.701Z,43.30
2018-05-12T15:32:26.427Z,43.20
2018-05-12T15:34:29.361Z,43.20
2018-05-12T15:36:32.353Z,42.80
2018-05-12T15:38:36.048Z,42.60
2018-05-12T15:40:38.980Z,42.60
2018-05-12T15:42:42.316Z,42.50
2018-05-12T15:44:45.230Z,42.60
2018-05-12T15:46:48.155Z,43.10
2018-05-12T15:48:51.097Z,42.90
2018-05-12T15:50:54.015Z,42.70
2018-05-12T15:52:56.994Z,42.60
2018-05-12T15:55:00.138Z,42.30
2018-05-12T15:57:03.827Z,42.20
2018-05-12T15:59:07.501Z,42.10
2018-05-12T16:01:10.870Z,42.10
2018-05-12T16:03:13.814Z,42.00
2018-05-12T16:05:17.488Z,41.70
2018-05-12T16:07:21.310Z,42.40
2018-05-12T16:09:24.988Z,41.70
2018-05-12T16:11:27.950Z,41.60
2018-05-12T16:13:30.873Z,41.70
2018-05-12T16:15:34.567Z,41.40
2018-05-12T16:17:38.269Z,41.40
2018-05-12T16:19:41.957Z,41.20
2018-05-12T16:21:45.709Z,41.10
2018-05-12T16:23:48.656Z,41.00
2018-05-12T16:25:52.423Z,41.00
2018-05-12T16:27:56.071Z,40.90
2018-05-12T16:29:58.990Z,40.80
2018-05-12T16:32:01.933Z,40.80
2018-05-12T16:34:04.861Z,40.60
2018-05-12T16:36:09.431Z,40.70
2018-05-12T16:38:12.399Z,40.70
2018-05-12T16:40:15.333Z,40.60
2018-05-12T16:42:18.281Z,40.50
2018-05-12T16:44:21.205Z,40.50
2018-05-12T16:46:24.234Z,40.50
2018-05-12T16:48:27.920Z,40.50
2018-05-12T16:50:30.898Z,40.40
2018-05-12T16:52:34.622Z,40.60
2018-05-12T16:54:38.293Z,40.70
2018-05-12T16:56:41.268Z,40.60
2018-05-12T16:58:44.282Z,40.70
2018-05-12T17:00:47.965Z,40.70
2018-05-12T17:02:50.893Z,40.50
2018-05-12T17:04:53.848Z,40.70
2018-05-12T17:06:57.569Z,40.80
2018-05-12T17:09:00.497Z,40.80
2018-05-12T17:11:03.427Z,40.80
2018-05-12T17:13:06.447Z,40.70
2018-05-12T17:15:09.476Z,40.80
2018-05-12T17:17:13.278Z,41.10
2018-05-12T17:19:16.949Z,41.20
2018-05-12T17:21:19.875Z,41.10
2018-05-12T17:23:22.886Z,41.10
2018-05-12T17:25:25.802Z,41.20
2018-05-12T17:27:30.263Z,41.10
2018-05-12T17:29:33.181Z,41.00
2018-05-12T17:31:36.123Z,41.10
2018-05-12T17:33:39.042Z,41.10
2018-05-12T17:35:42.177Z,41.20
2018-05-12T17:37:45.144Z,41.20
2018-05-12T17:39:48.834Z,41.40
2018-05-12T17:41:52.563Z,41.50
2018-05-12T17:43:56.256Z,41.50
2018-05-12T17:45:59.934Z,42.20
2018-05-12T17:48:04.397Z,41.60
2018-05-12T17:50:07.331Z,41.60
2018-05-12T17:52:11.051Z,42.30
2018-05-12T17:54:14.756Z,41.70
2018-05-12T17:56:18.436Z,41.70
2018-05-12T17:58:22.137Z,41.80
2018-05-12T18:00:25.814Z,42.00
2018-05-12T18:02:28.750Z,41.90
2018-05-12T18:04:31.669Z,42.10
2018-05-12T18:06:34.597Z,42.30
2018-05-12T18:08:38.408Z,42.50
2018-05-12T18:10:42.085Z,42.60
2018-05-12T18:12:45.903Z,42.80
2018-05-12T18:14:49.586Z,42.90
2018-05-12T18:16:53.404Z,43.30
2018-05-12T18:18:57.114Z,43.20
2018-05-12T18:21:00.107Z,43.10
2018-05-12T18:23:03.053Z,43.20
2018-05-12T18:25:06.737Z,44.20
2018-05-12T18:27:09.780Z,43.40
2018-05-12T18:29:12.712Z,43.40
2018-05-12T18:31:16.034Z,43.50
2018-05-12T18:33:19.751Z,43.60
2018-05-12T18:35:22.665Z,43.50
2018-05-12T18:37:25.629Z,43.60
2018-05-12T18:39:28.578Z,43.60
2018-05-12T18:41:31.537Z,43.60
2018-05-12T18:43:34.503Z,43.70
2018-05-12T18:45:37.522Z,43.80
2018-05-12T18:47:41.354Z,44.10
2018-05-12T18:49:44.277Z,44.00
2018-05-12T18:51:47.241Z,44.30
2018-05-12T18:53:50.318Z,44.50
2018-05-12T18:55:53.237Z,44.70
2018-05-12T18:57:56.149Z,44.80
2018-05-12T18:59:59.099Z,44.90
2018-05-12T19:02:02.018Z,44.90
2018-05-12T19:04:04.945Z,44.90
2018-05-12T19:06:08.068Z,45.00
2018-05-12T19:08:11.734Z,45.40
2018-05-12T19:10:14.683Z,44.80
2018-05-12T19:12:17.602Z,44.80
2018-05-12T19:14:20.524Z,44.70
2018-05-12T19:16:24.233Z,44.60
2018-05-12T19:18:27.154Z,44.60
2018-05-12T19:20:30.093Z,44.60
2018-05-12T19:22:33.118Z,44.50
2018-05-12T19:24:36.872Z,44.30
2018-05-12T19:26:39.824Z,44.40
2018-05-12T19:28:43.513Z,44.20
2018-05-12T19:30:46.465Z,44.20
2018-05-12T19:32:49.417Z,44.20
2018-05-12T19:34:53.123Z,44.10
2018-05-12T19:36:56.093Z,44.00
2018-05-12T19:38:59.770Z,44.00
2018-05-12T19:41:02.754Z,43.90
2018-05-12T19:43:05.661Z,43.80
2018-05-12T19:45:09.370Z,43.80
2018-05-12T19:47:12.301Z,43.70
2018-05-12T19:49:15.286Z,43.60
2018-05-12T19:51:18.256Z,43.50
2018-05-12T19:53:21.185Z,43.40
2018-05-12T19:55:24.986Z,43.40
2018-05-12T19:57:28.666Z,43.40
2018-05-12T19:59:31.581Z,43.30
2018-05-12T20:01:34.525Z,43.30
2018-05-12T20:03:37.448Z,43.20
2018-05-12T20:05:40.391Z,43.20
2018-05-12T20:07:43.305Z,43.20
2018-05-12T20:09:46.266Z,43.20
2018-05-12T20:11:49.193Z,43.20
2018-05-12T20:13:52.242Z,43.20
2018-05-12T20:15:56.063Z,43.10
2018-05-12T20:17:58.991Z,43.10
2018-05-12T20:20:01.987Z,43.00
2018-05-12T20:22:04.933Z,42.90
2018-05-12T20:24:07.860Z,42.90
2018-05-12T20:26:11.577Z,42.20
2018-05-12T20:28:15.376Z,42.80
2018-05-12T20:30:19.178Z,42.80
2018-05-12T20:32:22.885Z,42.80
2018-05-12T20:34:26.656Z,42.80
2018-05-12T20:36:29.605Z,42.60
2018-05-12T20:38:32.548Z,42.70
2018-05-12T20:40:36.258Z,42.80
2018-05-12T20:42:39.174Z,42.70
2018-05-12T20:44:42.212Z,42.70
2018-05-12T20:46:46.025Z,42.80
2018-05-12T20:48:48.939Z,42.70
2018-05-12T20:50:51.889Z,42.70
2018-05-12T20:52:54.819Z,42.70
2018-05-12T20:54:57.766Z,42.70
2018-05-12T20:57:00.825Z,42.70
2018-05-12T20:59:04.520Z,42.80
2018-05-12T21:01:08.226Z,42.80
2018-05-12T21:03:11.953Z,42.80
2018-05-12T21:05:14.910Z,42.70
2018-05-12T21:07:18.595Z,42.70
2018-05-12T21:09:22.301Z,42.70
2018-05-12T21:11:26.116Z,42.70
2018-05-12T21:13:29.911Z,42.70
2018-05-12T21:15:33.596Z,42.60
2018-05-12T21:17:37.413Z,42.60
2018-05-12T21:19:40.412Z,42.60
2018-05-12T21:21:43.332Z,42.60
2018-05-12T21:23:46.329Z,42.70
2018-05-12T21:25:49.244Z,42.70
2018-05-12T21:27:52.953Z,42.80
2018-05-12T21:29:56.186Z,42.70
2018-05-12T21:31:59.103Z,42.80
2018-05-12T21:34:02.797Z,43.20
2018-05-12T21:36:06.486Z,43.20
2018-05-12T21:38:09.425Z,42.80
2018-05-12T21:40:12.340Z,42.80
2018-05-12T21:42:15.371Z,42.80
2018-05-12T21:44:18.322Z,42.90
2018-05-12T21:46:21.242Z,43.00
2018-05-12T21:48:24.318Z,43.10
2018-05-12T21:50:27.252Z,43.10
2018-05-12T21:52:30.171Z,43.20
2018-05-12T21:54:33.930Z,43.40
2018-05-12T21:56:36.863Z,43.20
2018-05-12T21:58:39.786Z,43.30
2018-05-12T22:00:42.737Z,43.40
2018-05-12T22:02:45.673Z,43.50
2018-05-12T22:04:48.687Z,43.50
2018-05-12T22:06:52.492Z,43.60
2018-05-12T22:08:56.189Z,43.50
2018-05-12T22:10:59.857Z,43.50
2018-05-12T22:13:02.793Z,43.50
2018-05-12T22:15:05.714Z,43.50
2018-05-12T22:17:08.736Z,43.50
2018-05-12T22:19:12.541Z,43.60
2018-05-12T22:21:16.225Z,43.50
2018-05-12T22:23:20.061Z,44.10
2018-05-12T22:25:22.993Z,43.50
2018-05-12T22:27:26.004Z,43.50
2018-05-12T22:29:29.809Z,44.30
2018-05-12T22:31:33.486Z,43.60
2018-05-12T22:33:36.425Z,43.50
2018-05-12T22:35:39.333Z,43.60
2018-05-12T22:37:42.266Z,43.60
2018-05-12T22:39:45.206Z,43.70
2018-05-12T22:41:48.121Z,43.70
2018-05-12T22:43:52.039Z,43.80
2018-05-12T22:45:54.953Z,43.70
2018-05-12T22:47:57.932Z,43.70
2018-05-12T22:50:00.957Z,43.70
2018-05-12T22:52:04.663Z,43.70
2018-05-12T22:54:08.353Z,43.70
2018-05-12T22:56:12.067Z,43.70
2018-05-12T22:58:15.757Z,43.80
2018-05-12T23:00:21.970Z,43.80
2018-05-12T23:02:24.885Z,43.80
2018-05-12T23:04:27.801Z,43.80
2018-05-12T23:06:31.185Z,43.80
2018-05-12T23:08:34.109Z,43.80
2018-05-12T23:10:37.251Z,43.80
2018-05-12T23:12:40.336Z,43.90
2018-05-12T23:14:43.276Z,43.90
2018-05-12T23:16:46.198Z,43.90
2018-05-12T23:18:49.165Z,43.90
2018-05-12T23:20:52.845Z,43.90
2018-05-12T23:22:57.347Z,43.90
2018-05-12T23:25:00.297Z,43.80
2018-05-12T23:27:03.224Z,43.80
2018-05-12T23:29:06.165Z,43.80
2018-05-12T23:31:09.102Z,43.80
2018-05-12T23:33:12.315Z,43.90
2018-05-12T23:35:15.997Z,43.80
2018-05-12T23:37:19.676Z,43.80
2018-05-12T23:39:22.904Z,43.70
2018-05-12T23:41:26.589Z,43.80
2018-05-12T23:43:30.404Z,43.70
2018-05-12T23:45:34.105Z,43.60
2018-05-12T23:47:37.805Z,43.60
2018-05-12T23:49:41.554Z,43.70
2018-05-12T23:51:44.483Z,43.60
2018-05-12T23:53:48.205Z,43.90
2018-05-12T23:55:51.126Z,43.80
2018-05-12T23:57:54.152Z,43.90
2018-05-12T23:59:58.602Z,43.70
